Melbourne, FL

7:11 AM EDT on March 27, 2015 (GMT -0400)
Melbourne International | | Change Station
CLOSE
Current Station
Airport
Location: Melbourne,
Elevation: 33 ft
Nearby Weather Stations

Elev 33 ft 28.10 °N, 80.65 °W | Updated 18 minutes ago

Mostly Cloudy
Mostly Cloudy
67 °F
Feels Like 67 °F
N
9
Wind Variable Wind from South

Today
High -- | Low -- °F
--% Chance of Precip.
Yesterday
High -- | Low -- °F
Precip. -- in
7:18 AM 7:37 PM
First Quarter, 51% visible
Pressure 29.86 in
Visibility 10.0 miles
Clouds Clear
Dew Point 65 °F
Humidity 93%
Rainfall 0.01 in
Snow Depth Not available.
UV 0 out of 12
Pollen 10.20 out of 12
Air Quality Not available.
Flu Activity Not available.
METAR KMLB 271053Z 18008KT 10SM CLR 19/18 A2986 RMK AO2 SLP111 T01940183

More Conditions Fewer Conditions

Pressure 29.86 in
Visibility 10.0 miles
Clouds Clear
Dew Point 65 °F
Humidity 93%
Rainfall 0.01 in
Snow Depth Not available.
UV 0 out of 12
Pollen 10.20 out of 12
Air Quality Not available.
Flu Activity Not available.
METAR KMLB 271053Z 18008KT 10SM CLR 19/18 A2986 RMK AO2 SLP111 T01940183

More Conditions Fewer Conditions

Nowcast | as of 6:34 am EDT on March 27, 2015

Outflow boundaries from previous convection over the Gulf of Mexico yesterday pushed into central Florida overnight. Increasing wind fields aloft have generated bands of rain with embedded storms along these boundaries early this morning. The individual showers and storms will continue to move toward the east northeast around 40 mph south of a line from Micco to Lake Marian while the boundaries press to the southeast and push out of the area later this morning. Areas north of this line...largely from Brevard and Osceola County northward...will remain dry through mid morning. Then a large area of showers and storms is expected to redevelop by mid day into the afternoon and move from west to east ahead of an approaching cold front. The storms this afternoon will be fast moving and more capable of producing strong...and possibly damaging...wind gusts. Additional details...including graphics are available online at: http://www.Srh.NOAA.Gov/mlb/blog.Php

×

10-Day Weather Forecast

Almanac

Astronomy

Mar. 27, 2015 Rise Set
Actual Time
Civil Twilight
Nautical Twilight
Astronomical Twilight
Moon
Length of Visible Light
Length of Day
Tomorrow will be .
, % of the Moon is Illuminated

Today's Extremes

State Highs State Lows

Community

WunderPhotos

Upload Photos

1,808,707 photos uploaded!

WunderBlogs® & News

Nearby

Air Quality

  Air Quality AQ Index Pollutant
Not available.

Snow Depth

Station Depth Elevation

Earthquake Activity

City Distance Mag. Time & Date
Minimum magnitude displayed is 2.5.

Coastal Water Temperatures

Place Temperature

Stations

Nearby Weather Stations

Station Location Temp. Windchill Dew Point Humidity Wind Precip. Elev Updated Type